Time;durP1;ratioP1;P1;durP2;ratioP2;P2;SDS_P1;SDS_P2;PMS_P1;PMS_P2;Temp;Humidity;BMP_temperature;BMP_pressure;BME280_temperature;BME280_humidity;BME280_pressure;Samples;Min_cycle;Max_cycle;Signal;HPM_P1;HPM_P2
2022/04/04 00:00:23;;;;;;;0.68;0.50;;;17.20;57.90;;;;;;5027372;28;20112;-68
2022/04/04 00:02:48;;;;;;;0.70;0.50;;;17.20;58.00;;;;;;5032673;28;20036;-68
2022/04/04 00:05:14;;;;;;;1.85;0.47;;;17.20;58.00;;;;;;5032836;28;20044;-68
2022/04/04 00:07:40;;;;;;;1.45;0.70;;;17.20;58.00;;;;;;5032210;28;20079;-68
2022/04/04 00:10:06;;;;;;;2.70;0.50;;;17.20;58.00;;;;;;5031402;28;20033;-68
2022/04/04 00:12:32;;;;;;;0.70;0.60;;;17.20;57.90;;;;;;5015802;28;20503;-68
2022/04/04 00:14:57;;;;;;;0.60;0.40;;;17.20;58.00;;;;;;5012627;28;20021;-68
2022/04/04 00:17:23;;;;;;;0.60;0.60;;;17.20;58.00;;;;;;5011595;28;20029;-68
2022/04/04 00:19:49;;;;;;;1.25;0.60;;;17.20;58.00;;;;;;5012727;28;20026;-68
2022/04/04 00:22:14;;;;;;;1.50;0.45;;;17.20;58.00;;;;;;5011192;28;20108;-68
2022/04/04 00:24:40;;;;;;;0.73;0.63;;;17.20;58.00;;;;;;5011639;28;20030;-68
2022/04/04 00:27:06;;;;;;;0.82;0.50;;;17.20;58.00;;;;;;5012677;28;20033;-68
2022/04/04 00:29:31;;;;;;;1.50;0.68;;;17.20;58.00;;;;;;5012599;28;20030;-68
2022/04/04 00:31:57;;;;;;;1.00;0.60;;;17.20;58.00;;;;;;5012638;28;20045;-68
2022/04/04 00:34:23;;;;;;;0.82;0.50;;;17.20;58.00;;;;;;5012426;28;20029;-68
2022/04/04 00:36:48;;;;;;;0.90;0.80;;;17.20;58.00;;;;;;5012232;28;20022;-68
2022/04/04 00:39:19;;;;;;;0.77;0.50;;;17.20;58.00;;;;;;5012834;28;20029;-68
2022/04/04 00:41:46;;;;;;;2.05;0.63;;;17.20;58.00;;;;;;5012637;28;20014;-68
2022/04/04 00:44:12;;;;;;;0.93;0.60;;;17.20;58.00;;;;;;5011091;28;20073;-68
2022/04/04 00:46:41;;;;;;;1.55;0.55;;;17.20;58.00;;;;;;5011173;28;20041;-68
2022/04/04 00:49:08;;;;;;;0.50;0.47;;;17.20;59.00;;;;;;5011351;28;20032;-68
2022/04/04 00:51:34;;;;;;;0.70;0.57;;;17.20;58.10;;;;;;5012262;28;20106;-68
2022/04/04 00:53:59;;;;;;;1.10;0.50;;;17.20;58.10;;;;;;5012598;28;20109;-68
2022/04/04 00:56:26;;;;;;;0.50;0.50;;;17.20;58.10;;;;;;5012335;28;20022;-68
2022/04/04 00:58:52;;;;;;;1.08;0.60;;;17.20;58.10;;;;;;5013242;28;20022;-68
2022/04/04 01:01:18;;;;;;;0.45;0.45;;;17.20;58.10;;;;;;5030929;28;20052;-68
2022/04/04 01:03:44;;;;;;;0.73;0.55;;;17.20;58.10;;;;;;5030692;28;20031;-68
2022/04/04 01:06:09;;;;;;;0.85;0.68;;;17.20;58.10;;;;;;5030772;28;20036;-68
2022/04/04 01:08:36;;;;;;;0.85;0.85;;;17.20;58.10;;;;;;5031960;28;20088;-68
2022/04/04 01:11:01;;;;;;;0.63;0.57;;;17.20;59.10;;;;;;5026116;28;20056;-68
2022/04/04 01:13:27;;;;;;;0.70;0.60;;;17.20;58.10;;;;;;5012351;28;20065;-68
2022/04/04 01:15:53;;;;;;;1.77;0.63;;;17.20;58.10;;;;;;5012144;28;20033;-68
2022/04/04 01:18:18;;;;;;;1.48;0.43;;;17.20;58.20;;;;;;5012000;28;20029;-68
2022/04/04 01:20:44;;;;;;;0.77;0.65;;;17.20;58.20;;;;;;5015395;28;20030;-68
2022/04/04 01:23:13;;;;;;;0.63;0.55;;;17.20;58.20;;;;;;5015866;28;20037;-68
2022/04/04 01:25:39;;;;;;;1.02;0.60;;;17.20;58.30;;;;;;5015868;28;20037;-69
2022/04/04 01:28:05;;;;;;;0.73;0.60;;;17.20;58.20;;;;;;4998119;28;20026;-68
2022/04/04 01:30:31;;;;;;;0.57;0.50;;;17.10;58.20;;;;;;5014487;28;20033;-68
2022/04/04 01:32:56;;;;;;;0.55;0.55;;;17.20;59.30;;;;;;5014413;28;20029;-68
2022/04/04 01:35:22;;;;;;;1.77;0.50;;;17.20;58.30;;;;;;5015566;28;20033;-68
2022/04/04 01:37:48;;;;;;;1.63;0.50;;;17.10;58.20;;;;;;5014321;28;20026;-68
2022/04/04 01:40:15;;;;;;;0.93;0.50;;;17.20;58.20;;;;;;5015336;28;20100;-68
2022/04/04 01:42:41;;;;;;;0.60;0.50;;;17.20;58.30;;;;;;5015409;28;20503;-68
2022/04/04 01:45:08;;;;;;;0.45;0.45;;;17.20;58.30;;;;;;5014113;28;20045;-68
2022/04/04 01:47:34;;;;;;;0.77;0.45;;;17.20;58.30;;;;;;5014215;28;20148;-68
2022/04/04 01:49:59;;;;;;;1.08;0.60;;;17.20;58.30;;;;;;5013946;28;20053;-68
2022/04/04 01:52:25;;;;;;;1.30;0.80;;;17.20;58.30;;;;;;5014172;28;20057;-68
2022/04/04 01:54:51;;;;;;;0.95;0.82;;;17.10;58.20;;;;;;5014056;28;20022;-68
2022/04/04 01:57:17;;;;;;;1.30;0.50;;;17.20;58.40;;;;;;5015337;28;20373;-68
2022/04/04 01:59:43;;;;;;;0.98;0.63;;;17.20;58.30;;;;;;5022910;28;20033;-68
2022/04/04 02:02:09;;;;;;;1.38;0.68;;;17.20;58.40;;;;;;5034997;28;20045;-68
2022/04/04 02:04:35;;;;;;;0.93;0.50;;;17.10;58.30;;;;;;5034755;28;20480;-68
2022/04/04 02:07:01;;;;;;;0.95;0.60;;;17.10;58.30;;;;;;5033523;28;20033;-68
2022/04/04 02:09:26;;;;;;;1.92;0.60;;;17.10;58.30;;;;;;5034771;28;20024;-68
2022/04/04 02:11:52;;;;;;;0.60;0.60;;;17.10;58.30;;;;;;5034516;28;20034;-68
2022/04/04 02:14:18;;;;;;;2.35;0.60;;;17.10;58.40;;;;;;5034718;28;20040;-68
2022/04/04 02:16:44;;;;;;;1.15;0.63;;;17.20;58.40;;;;;;5034583;28;20109;-68
2022/04/04 02:19:10;;;;;;;0.70;0.68;;;17.10;58.30;;;;;;5034310;28;20018;-68
2022/04/04 02:21:36;;;;;;;1.05;0.40;;;17.10;58.30;;;;;;5034482;28;20078;-68
2022/04/04 02:24:02;;;;;;;0.93;0.50;;;17.10;58.30;;;;;;5034733;28;20029;-68
2022/04/04 02:26:27;;;;;;;1.08;0.50;;;17.10;58.30;;;;;;5034478;28;20028;-68
2022/04/04 02:28:53;;;;;;;0.50;0.40;;;17.20;58.40;;;;;;5034258;28;20026;-68
2022/04/04 02:31:19;;;;;;;1.80;0.50;;;17.10;58.30;;;;;;5033438;28;20030;-68
2022/04/04 02:33:44;;;;;;;0.63;0.50;;;17.10;58.30;;;;;;5032969;28;20026;-68
2022/04/04 02:36:10;;;;;;;0.95;0.68;;;17.10;58.40;;;;;;5033030;28;20113;-68
2022/04/04 02:38:36;;;;;;;1.13;0.65;;;17.10;58.30;;;;;;5034246;28;20078;-68
2022/04/04 02:41:02;;;;;;;1.33;0.50;;;17.10;58.30;;;;;;5034070;28;20021;-68
2022/04/04 02:43:27;;;;;;;0.40;0.40;;;17.10;58.30;;;;;;5032913;28;20490;-68
2022/04/04 02:45:53;;;;;;;0.55;0.55;;;17.10;58.40;;;;;;5032870;28;20072;-68
2022/04/04 02:48:19;;;;;;;1.55;0.55;;;17.10;58.30;;;;;;5032594;28;20025;-68
2022/04/04 02:50:45;;;;;;;0.50;0.47;;;17.10;58.40;;;;;;5033722;28;20037;-68
2022/04/04 02:53:11;;;;;;;0.93;0.47;;;17.10;58.40;;;;;;5032668;28;20096;-68
2022/04/04 02:58:20;;;;;;;0.50;0.50;;;17.10;58.40;;;;;;5033838;28;20079;-68
2022/04/04 03:00:46;;;;;;;0.50;0.50;;;17.10;58.50;;;;;;5033252;28;20458;-68
2022/04/04 03:03:12;;;;;;;2.47;0.85;;;17.10;58.40;;;;;;5033838;28;20391;-68
2022/04/04 03:05:38;;;;;;;0.88;0.40;;;17.10;58.40;;;;;;5033740;28;20029;-68
2022/04/04 03:08:04;;;;;;;0.60;0.40;;;17.10;58.40;;;;;;5033632;28;20033;-68
2022/04/04 03:10:31;;;;;;;0.90;0.40;;;17.10;58.40;;;;;;5032178;28;20388;-68
2022/04/04 03:12:59;;;;;;;0.52;0.52;;;17.10;58.40;;;;;;5012329;28;20492;-68
2022/04/04 03:15:25;;;;;;;0.45;0.45;;;17.10;59.40;;;;;;5012312;28;20014;-68
2022/04/04 03:17:53;;;;;;;0.38;0.38;;;17.10;58.50;;;;;;5013706;28;20152;-68
2022/04/04 03:20:19;;;;;;;1.02;0.40;;;17.10;58.50;;;;;;5012601;28;20041;-68
2022/04/04 03:22:46;;;;;;;1.00;0.63;;;17.10;58.40;;;;;;5012377;28;20029;-68
2022/04/04 03:25:12;;;;;;;1.92;0.75;;;17.10;58.40;;;;;;5012294;28;20025;-68
2022/04/04 03:27:39;;;;;;;0.45;0.45;;;17.10;58.50;;;;;;5012270;28;20024;-68
2022/04/04 03:30:18;;;;;;;1.08;0.57;;;17.10;58.40;;;;;;5012129;28;20156;-68
2022/04/04 03:32:45;;;;;;;0.73;0.60;;;17.10;58.40;;;;;;5012438;28;20022;-68
2022/04/04 03:35:11;;;;;;;0.52;0.50;;;17.10;58.50;;;;;;5012152;28;20420;-68
2022/04/04 03:37:36;;;;;;;0.75;0.40;;;17.10;58.60;;;;;;5012134;28;20022;-68
2022/04/04 03:40:06;;;;;;;1.77;0.60;;;17.10;58.50;;;;;;5013370;28;20080;-68
2022/04/04 03:42:32;;;;;;;0.85;0.70;;;17.10;58.50;;;;;;5012980;28;20117;-68
2022/04/04 03:44:58;;;;;;;0.40;0.40;;;17.10;58.50;;;;;;5012839;28;20461;-68
2022/04/04 03:47:24;;;;;;;0.60;0.60;;;17.10;58.60;;;;;;5013002;28;20026;-68
2022/04/04 03:49:50;;;;;;;0.50;0.50;;;17.10;58.50;;;;;;5013064;28;20448;-68
2022/04/04 03:52:15;;;;;;;1.58;0.47;;;17.10;58.50;;;;;;5013177;28;20101;-68
2022/04/04 03:54:41;;;;;;;0.70;0.60;;;17.00;58.40;;;;;;5013256;28;20097;-68
2022/04/04 03:57:07;;;;;;;0.50;0.40;;;17.00;58.50;;;;;;5012843;28;20488;-68
2022/04/04 03:59:33;;;;;;;0.60;0.50;;;17.10;58.50;;;;;;5020418;28;20029;-68
2022/04/04 04:01:58;;;;;;;2.25;1.00;;;17.10;58.60;;;;;;5032669;28;20432;-68
2022/04/04 04:04:24;;;;;;;0.40;0.40;;;17.00;58.40;;;;;;5032619;28;20518;-68
2022/04/04 04:06:51;;;;;;;0.63;0.47;;;17.00;58.50;;;;;;5032733;28;20026;-68
2022/04/04 04:09:18;;;;;;;1.08;0.70;;;17.00;58.40;;;;;;5032533;28;20083;-68
2022/04/04 04:11:43;;;;;;;0.45;0.40;;;17.10;58.50;;;;;;4998618;28;20071;-68
2022/04/04 04:14:09;;;;;;;0.50;0.50;;;17.00;58.50;;;;;;5032255;28;20499;-68
2022/04/04 04:16:34;;;;;;;0.50;0.50;;;17.00;58.50;;;;;;5032563;28;20025;-68
2022/04/04 04:19:00;;;;;;;1.23;0.50;;;17.00;58.50;;;;;;5032402;28;20021;-67
2022/04/04 04:21:26;;;;;;;0.55;0.47;;;17.00;58.50;;;;;;5032528;28;20449;-67
2022/04/04 04:23:51;;;;;;;0.52;0.40;;;17.10;58.60;;;;;;5031388;28;20419;-67
2022/04/04 04:26:17;;;;;;;0.52;0.40;;;17.00;58.50;;;;;;5032271;28;20029;-67
2022/04/04 04:28:44;;;;;;;1.08;0.73;;;17.00;58.50;;;;;;5032315;28;20038;-67
2022/04/04 04:31:09;;;;;;;0.50;0.50;;;17.00;58.50;;;;;;5031102;28;20029;-68
2022/04/04 04:33:35;;;;;;;0.95;0.60;;;17.00;58.50;;;;;;5032514;28;20022;-67
2022/04/04 04:36:01;;;;;;;0.82;0.50;;;17.00;59.50;;;;;;5032291;28;20022;-67
2022/04/04 04:38:27;;;;;;;2.65;0.50;;;17.00;58.50;;;;;;5032314;28;20381;-67
2022/04/04 04:40:53;;;;;;;0.40;0.40;;;17.00;58.50;;;;;;5032290;28;20025;-67
2022/04/04 04:43:18;;;;;;;0.82;0.70;;;17.00;58.50;;;;;;5030959;28;20104;-68
2022/04/04 04:45:44;;;;;;;0.98;0.60;;;17.00;58.50;;;;;;5032082;28;20401;-68
2022/04/04 04:48:10;;;;;;;0.85;0.50;;;17.00;58.50;;;;;;5030956;28;20499;-68
2022/04/04 04:50:36;;;;;;;1.10;0.55;;;17.00;58.50;;;;;;5032322;28;20055;-68
2022/04/04 04:53:02;;;;;;;0.52;0.30;;;17.00;58.50;;;;;;5032186;28;20427;-68
2022/04/04 04:55:27;;;;;;;0.40;0.40;;;17.00;58.50;;;;;;5035406;28;20114;-68
2022/04/04 04:57:53;;;;;;;0.75;0.65;;;17.00;58.50;;;;;;5036028;28;20021;-68
2022/04/04 05:00:21;;;;;;;1.05;0.50;;;17.00;58.50;;;;;;5035850;28;20025;-68
2022/04/04 05:03:24;;;;;;;0.73;0.47;;;17.00;58.50;;;;;;5036155;28;20064;-68
2022/04/04 05:05:32;;;;;;;0.40;0.40;;;17.00;58.50;;;;;;5035736;28;20030;-68
2022/04/04 05:07:58;;;;;;;0.50;0.50;;;17.00;58.50;;;;;;5036080;28;20361;-68
2022/04/04 05:10:24;;;;;;;0.40;0.40;;;17.00;58.50;;;;;;5035865;28;20026;-68
2022/04/04 05:12:49;;;;;;;0.50;0.50;;;17.00;58.50;;;;;;5016539;28;20080;-68
2022/04/04 05:15:17;;;;;;;0.60;0.57;;;17.00;58.50;;;;;;5016072;28;20914;-68
2022/04/04 05:17:42;;;;;;;0.45;0.45;;;17.00;58.50;;;;;;5016000;28;20025;-68
2022/04/04 05:20:08;;;;;;;0.50;0.50;;;17.00;58.50;;;;;;5015621;28;20026;-68
2022/04/04 05:22:35;;;;;;;0.98;0.40;;;17.00;58.50;;;;;;5016114;28;20033;-68
2022/04/04 05:25:00;;;;;;;1.08;0.60;;;17.00;58.50;;;;;;5015807;28;20104;-68
2022/04/04 05:27:26;;;;;;;0.63;0.40;;;17.00;58.50;;;;;;5014400;28;20113;-68
2022/04/04 05:29:52;;;;;;;0.32;0.30;;;17.00;59.60;;;;;;5015683;28;20030;-68
2022/04/04 05:32:19;;;;;;;1.63;0.60;;;17.00;58.60;;;;;;5015612;28;20108;-68
2022/04/04 05:34:45;;;;;;;1.00;0.60;;;17.00;58.50;;;;;;5014638;28;20021;-68
2022/04/04 05:37:12;;;;;;;0.80;0.50;;;17.00;58.50;;;;;;5014415;28;20026;-68
2022/04/04 05:39:38;;;;;;;1.13;0.40;;;17.00;58.60;;;;;;5015470;28;20022;-68
2022/04/04 05:42:04;;;;;;;1.20;0.43;;;17.00;58.50;;;;;;5015358;28;20034;-68
2022/04/04 05:44:32;;;;;;;0.60;0.50;;;17.00;58.50;;;;;;5015418;28;20400;-68
2022/04/04 05:46:58;;;;;;;0.95;0.40;;;17.00;58.50;;;;;;5014237;28;20022;-68
2022/04/04 05:49:24;;;;;;;0.73;0.55;;;17.00;58.50;;;;;;5015282;28;20038;-68
2022/04/04 05:51:50;;;;;;;1.38;0.45;;;17.00;58.50;;;;;;5014236;28;20503;-68
2022/04/04 05:54:16;;;;;;;0.43;0.43;;;17.00;58.50;;;;;;5015243;28;20030;-68
2022/04/04 05:56:44;;;;;;;0.93;0.47;;;17.00;58.60;;;;;;5015243;28;20194;-67
2022/04/04 05:59:12;;;;;;;1.10;0.50;;;17.00;58.50;;;;;;5019897;28;20044;-68
2022/04/04 06:01:37;;;;;;;0.52;0.47;;;17.00;58.50;;;;;;5034847;28;20021;-68
2022/04/04 06:04:03;;;;;;;0.93;0.50;;;16.90;58.50;;;;;;5034985;28;20040;-68
2022/04/04 06:06:29;;;;;;;0.40;0.40;;;17.00;58.50;;;;;;5034511;28;20388;-68
2022/04/04 06:08:55;;;;;;;0.50;0.50;;;16.90;58.50;;;;;;5034641;28;20064;-68
2022/04/04 06:11:21;;;;;;;1.40;0.60;;;17.00;58.50;;;;;;5027424;28;20026;-68
2022/04/04 06:13:46;;;;;;;0.60;0.60;;;16.90;58.50;;;;;;5014883;28;20108;-68
2022/04/04 06:16:12;;;;;;;0.50;0.50;;;16.90;58.50;;;;;;5014788;28;20029;-68
2022/04/04 06:18:38;;;;;;;0.30;0.30;;;16.90;58.50;;;;;;5014844;28;20388;-68
2022/04/04 06:21:03;;;;;;;0.52;0.50;;;16.90;58.50;;;;;;5014603;28;20480;-68
2022/04/04 06:23:30;;;;;;;0.55;0.45;;;16.90;58.50;;;;;;5014514;28;20392;-68
2022/04/04 06:25:56;;;;;;;0.73;0.40;;;16.90;58.50;;;;;;5031725;28;20068;-68
2022/04/04 06:28:22;;;;;;;0.40;0.40;;;16.90;58.60;;;;;;5029931;28;20075;-68
2022/04/04 06:30:47;;;;;;;0.55;0.35;;;17.00;58.60;;;;;;5031406;28;20033;-68
2022/04/04 06:33:13;;;;;;;0.40;0.40;;;16.90;58.50;;;;;;5032457;28;20472;-68
2022/04/04 06:35:39;;;;;;;0.95;0.40;;;17.00;58.60;;;;;;5032374;28;20048;-68
2022/04/04 06:38:05;;;;;;;0.50;0.50;;;16.90;58.50;;;;;;5032320;28;20013;-68
2022/04/04 06:40:31;;;;;;;0.50;0.45;;;17.00;58.60;;;;;;5064218;28;20032;-68
2022/04/04 06:42:57;;;;;;;0.77;0.40;;;16.90;58.50;;;;;;5032383;28;20032;-68
2022/04/04 06:45:22;;;;;;;0.40;0.40;;;17.00;58.60;;;;;;5036310;28;20048;-68
2022/04/04 06:47:48;;;;;;;0.52;0.52;;;17.00;58.60;;;;;;5031246;28;20029;-68
2022/04/04 06:50:14;;;;;;;1.17;0.57;;;17.00;58.60;;;;;;5032035;28;20488;-68
2022/04/04 06:52:40;;;;;;;0.50;0.40;;;17.00;58.60;;;;;;5050370;28;20017;-68
2022/04/04 06:55:07;;;;;;;0.60;0.45;;;17.00;58.60;;;;;;5032480;28;20139;-68
2022/04/04 06:57:33;;;;;;;2.67;0.68;;;16.90;58.60;;;;;;5064121;28;20013;-68
2022/04/04 06:59:59;;;;;;;0.50;0.50;;;17.00;58.60;;;;;;5032002;28;20044;-68
2022/04/04 07:02:25;;;;;;;0.35;0.35;;;17.00;58.60;;;;;;5063824;28;20096;-68
2022/04/04 07:04:50;;;;;;;0.85;0.38;;;17.00;58.60;;;;;;5066607;28;20410;-68
2022/04/04 07:07:17;;;;;;;0.50;0.45;;;17.00;58.60;;;;;;5032656;28;20026;-68
2022/04/04 07:09:44;;;;;;;0.40;0.40;;;17.00;58.60;;;;;;5063571;28;20048;-68
2022/04/04 07:12:10;;;;;;;1.95;0.30;;;17.00;58.60;;;;;;5042018;28;20431;-68
2022/04/04 07:14:36;;;;;;;0.90;0.50;;;17.00;58.60;;;;;;5031856;28;20024;-68
2022/04/04 07:17:02;;;;;;;0.57;0.43;;;17.00;58.60;;;;;;5031005;28;20029;-68
2022/04/04 07:19:33;;;;;;;0.60;0.35;;;17.00;58.60;;;;;;5033935;28;20083;-68
2022/04/04 07:22:01;;;;;;;1.00;0.52;;;17.00;58.60;;;;;;5060449;28;20021;-68
2022/04/04 07:24:28;;;;;;;0.30;0.30;;;17.00;58.60;;;;;;5065204;28;20060;-68
2022/04/04 07:26:54;;;;;;;0.60;0.40;;;17.00;58.60;;;;;;5018535;28;20105;-68
2022/04/04 07:29:19;;;;;;;0.75;0.40;;;17.00;58.60;;;;;;5063351;28;20092;-68
2022/04/04 07:31:45;;;;;;;0.90;0.40;;;17.00;58.60;;;;;;5045644;28;20021;-68
2022/04/04 07:34:10;;;;;;;0.35;0.35;;;17.00;58.60;;;;;;5037837;28;20070;-68
2022/04/04 07:36:37;;;;;;;0.70;0.40;;;17.00;58.60;;;;;;5063075;28;20080;-68
2022/04/04 07:39:06;;;;;;;0.90;0.50;;;17.00;58.60;;;;;;5063287;28;20067;-68
2022/04/04 07:41:32;;;;;;;1.05;0.40;;;17.00;58.60;;;;;;5031475;28;20053;-68
2022/04/04 07:43:58;;;;;;;0.77;0.50;;;17.00;58.60;;;;;;5048864;28;20048;-68
2022/04/04 07:46:23;;;;;;;1.90;0.93;;;17.00;58.70;;;;;;5042715;28;20055;-68
2022/04/04 07:48:50;;;;;;;0.75;0.75;;;17.00;58.60;;;;;;5042229;28;20021;-68
2022/04/04 07:51:15;;;;;;;0.93;0.57;;;17.00;58.70;;;;;;5062812;28;20090;-68
2022/04/04 07:53:41;;;;;;;0.95;0.50;;;17.00;58.60;;;;;;5062923;28;20021;-68
2022/04/04 07:56:07;;;;;;;0.50;0.40;;;17.00;58.70;;;;;;5031234;28;20036;-68
2022/04/04 07:58:32;;;;;;;0.85;0.50;;;17.00;58.70;;;;;;5030975;28;20028;-68
2022/04/04 08:00:59;;;;;;;0.25;0.25;;;17.00;58.70;;;;;;5045015;28;20025;-68
2022/04/04 08:03:24;;;;;;;0.88;0.38;;;17.00;58.70;;;;;;5049674;28;20031;-68
2022/04/04 08:05:50;;;;;;;0.50;0.50;;;17.00;58.70;;;;;;5030953;28;20022;-68
2022/04/04 08:08:16;;;;;;;0.43;0.43;;;17.00;58.70;;;;;;5062976;28;20047;-68
2022/04/04 08:10:42;;;;;;;2.10;0.63;;;17.00;58.70;;;;;;5032201;28;20025;-68
2022/04/04 08:13:07;;;;;;;1.88;0.70;;;17.00;58.70;;;;;;5034291;28;20025;-69
2022/04/04 08:15:33;;;;;;;0.82;0.68;;;17.00;58.20;;;;;;5062735;28;20020;-69
2022/04/04 08:17:59;;;;;;;1.92;0.80;;;16.90;57.60;;;;;;5060480;28;20030;-71
2022/04/04 08:20:25;;;;;;;0.43;0.43;;;16.80;57.50;;;;;;5046800;28;20029;-71
2022/04/04 08:22:50;;;;;;;0.95;0.63;;;16.70;57.50;;;;;;5033346;28;20476;-71
2022/04/04 08:25:17;;;;;;;1.13;0.80;;;16.70;57.50;;;;;;5030586;28;20435;-72
2022/04/04 08:27:43;;;;;;;1.45;0.98;;;16.60;57.40;;;;;;5062500;28;20060;-72
2022/04/04 08:30:11;;;;;;;1.45;0.90;;;16.60;57.30;;;;;;5062248;28;20099;-72
2022/04/04 08:32:37;;;;;;;0.95;0.90;;;16.60;57.30;;;;;;5030608;28;20554;-72
2022/04/04 08:35:06;;;;;;;1.35;0.80;;;16.50;57.20;;;;;;5045498;28;20014;-73
2022/04/04 08:37:33;;;;;;;0.77;0.77;;;16.50;57.20;;;;;;5047620;28;20051;-71
2022/04/04 08:39:59;;;;;;;1.38;0.90;;;16.50;57.20;;;;;;5045948;28;20026;-72
2022/04/04 08:42:27;;;;;;;1.70;0.75;;;16.50;57.20;;;;;;5032856;28;20037;-72
2022/04/04 08:44:56;;;;;;;1.05;0.90;;;16.50;57.10;;;;;;5031897;28;20084;-71
2022/04/04 08:47:22;;;;;;;0.90;0.90;;;16.50;57.00;;;;;;5064118;28;20087;-70
2022/04/04 08:49:52;;;;;;;1.17;1.10;;;16.50;57.00;;;;;;5031989;28;20053;-70
2022/04/04 08:52:18;;;;;;;0.82;0.82;;;16.40;56.90;;;;;;5063947;28;20487;-70
2022/04/04 08:54:43;;;;;;;2.08;1.00;;;16.40;56.90;;;;;;5047799;28;20036;-70
2022/04/04 08:57:09;;;;;;;1.75;1.00;;;16.40;57.00;;;;;;5064004;28;20026;-70
2022/04/04 08:59:34;;;;;;;1.42;1.00;;;16.40;56.90;;;;;;5032030;28;20022;-69
2022/04/04 09:02:00;;;;;;;0.82;0.80;;;16.40;56.90;;;;;;5032279;28;20044;-69
2022/04/04 09:04:26;;;;;;;1.52;1.10;;;16.40;56.90;;;;;;5030669;28;20029;-69
2022/04/04 09:07:02;;;;;;;2.78;1.10;;;16.40;56.90;;;;;;5031904;28;20021;-71
2022/04/04 09:09:36;;;;;;;2.80;1.10;;;16.40;56.90;;;;;;5031039;28;20017;-70
2022/04/04 09:12:13;;;;;;;1.38;1.10;;;16.50;56.90;;;;;;5018203;28;20401;-71
2022/04/04 09:14:52;;;;;;;2.85;1.05;;;16.50;56.80;;;;;;5010995;28;20022;-71
2022/04/04 09:17:22;;;;;;;1.65;1.05;;;16.50;56.80;;;;;;5012308;28;20026;-72
2022/04/04 09:19:48;;;;;;;1.05;0.95;;;16.40;56.90;;;;;;5010842;28;20025;-71
2022/04/04 09:22:15;;;;;;;0.80;0.80;;;16.40;56.90;;;;;;5011830;28;20061;-72
2022/04/04 09:25:00;;;;;;;2.45;1.05;;;16.50;56.90;;;;;;5011301;28;20572;-72
2022/04/04 09:27:28;;;;;;;1.77;0.90;;;16.50;56.70;;;;;;5011017;28;20030;-73
2022/04/04 09:30:07;;;;;;;0.82;0.70;;;16.50;56.90;;;;;;5010874;28;20516;-71
2022/04/04 09:32:42;;;;;;;1.15;1.00;;;16.50;56.90;;;;;;5011042;28;20028;-71
2022/04/04 09:35:09;;;;;;;0.82;0.82;;;16.50;56.90;;;;;;5010941;28;20014;-71
2022/04/04 09:37:35;;;;;;;1.15;0.90;;;16.50;56.90;;;;;;5010758;28;20058;-71
2022/04/04 09:40:09;;;;;;;0.88;0.80;;;16.50;56.90;;;;;;5011593;28;20022;-71
2022/04/04 09:42:35;;;;;;;1.10;1.02;;;16.50;56.80;;;;;;5015735;28;20140;-71
2022/04/04 09:45:06;;;;;;;0.70;0.63;;;16.50;56.90;;;;;;5015139;28;20500;-71
2022/04/04 09:47:54;;;;;;;0.93;0.90;;;16.50;56.90;;;;;;5015107;28;20065;-72
2022/04/04 09:50:41;;;;;;;0.88;0.80;;;16.60;56.70;;;;;;5015315;28;20026;-73
2022/04/04 09:53:11;;;;;;;2.40;0.82;;;16.60;56.70;;;;;;5015324;28;20026;-72
2022/04/04 09:55:41;;;;;;;0.60;0.60;;;16.50;56.90;;;;;;5014140;28;20483;-73
2022/04/04 09:58:08;;;;;;;1.02;0.80;;;16.50;56.90;;;;;;5014065;28;20555;-73
2022/04/04 10:00:38;;;;;;;2.40;0.70;;;16.60;56.90;;;;;;5031134;28;20495;-70
2022/04/04 10:03:06;;;;;;;2.40;0.95;;;16.50;56.80;;;;;;5034632;28;20026;-71
2022/04/04 10:05:32;;;;;;;0.73;0.73;;;16.60;56.90;;;;;;5033669;28;20373;-71
2022/04/04 10:07:58;;;;;;;2.22;0.80;;;16.50;56.90;;;;;;5033759;28;20021;-71
2022/04/04 10:10:30;;;;;;;1.23;0.80;;;16.60;56.90;;;;;;5033597;28;20108;-71
2022/04/04 10:12:57;;;;;;;2.72;0.95;;;16.60;56.80;;;;;;5013659;28;20049;-71
2022/04/04 10:15:25;;;;;;;0.90;0.90;;;16.60;56.80;;;;;;5013772;28;20026;-71
2022/04/04 10:17:51;;;;;;;1.00;0.85;;;16.60;56.90;;;;;;5013503;28;20121;-71
2022/04/04 10:20:17;;;;;;;2.08;0.70;;;16.60;56.90;;;;;;5013643;28;20018;-70
2022/04/04 10:22:44;;;;;;;0.93;0.82;;;16.60;56.90;;;;;;4997525;28;20037;-70
2022/04/04 10:25:11;;;;;;;0.88;0.82;;;16.60;56.80;;;;;;5013630;28;20041;-70
2022/04/04 10:27:37;;;;;;;2.35;1.10;;;16.60;56.80;;;;;;4997272;28;20519;-70
2022/04/04 10:30:07;;;;;;;0.70;0.70;;;16.60;56.80;;;;;;5013516;28;20030;-70
2022/04/04 10:32:33;;;;;;;0.88;0.80;;;16.70;56.80;;;;;;5019546;28;20075;-71
2022/04/04 10:35:08;;;;;;;1.10;0.82;;;16.70;56.90;;;;;;5033085;28;20021;-71
2022/04/04 10:37:35;;;;;;;1.05;0.80;;;16.60;56.80;;;;;;5033197;28;20032;-72
2022/04/04 10:40:01;;;;;;;1.48;0.88;;;16.70;56.90;;;;;;5033045;28;20026;-71
2022/04/04 10:42:43;;;;;;;1.35;0.68;;;16.70;56.90;;;;;;5032730;28;20416;-72
2022/04/04 10:45:09;;;;;;;0.80;0.80;;;16.70;56.80;;;;;;5032704;28;20100;-70
2022/04/04 10:47:39;;;;;;;0.82;0.80;;;16.70;57.90;;;;;;5032697;28;20115;-70
2022/04/04 10:50:22;;;;;;;1.23;0.80;;;16.70;56.90;;;;;;5033069;28;20140;-70
2022/04/04 10:52:47;;;;;;;;;;;16.80;56.80;;;;;;5033191;28;20384;-70
2022/04/04 10:55:34;;;;;;;2.63;1.00;;;16.70;56.90;;;;;;5034168;28;19916;-71
2022/04/04 10:58:10;;;;;;;1.08;0.63;;;16.70;57.00;;;;;;5033923;28;20014;-70
2022/04/04 11:00:55;;;;;;;1.08;0.90;;;16.70;57.10;;;;;;5032590;28;20056;-70
2022/04/04 11:03:37;;;;;;;1.40;0.80;;;16.80;57.00;;;;;;5033920;28;20030;-70
2022/04/04 11:09:16;;;;;;;0.75;0.75;;;16.70;57.10;;;;;;5032867;28;20060;-70
2022/04/04 11:11:46;;;;;;;;;;;16.80;57.10;;;;;;5024035;28;20022;-70
2022/04/04 11:14:12;;;;;;;0.70;0.70;;;16.70;57.10;;;;;;5013702;28;20379;-70
2022/04/04 11:17:11;;;;;;;1.63;0.90;;;16.70;57.30;;;;;;5013685;28;20026;-71
2022/04/04 11:19:53;;;;;;;2.13;0.93;;;16.80;57.20;;;;;;5012850;28;20034;-72
2022/04/04 11:22:21;;;;;;;1.27;1.05;;;16.80;57.30;;;;;;5012402;28;20057;-72
2022/04/04 11:25:19;;;;;;;1.75;1.15;;;16.80;57.30;;;;;;5012398;28;20025;-72
2022/04/04 11:27:48;;;;;;;2.10;1.50;;;16.90;57.20;;;;;;5011281;28;20042;-69
2022/04/04 11:30:25;;;;;;;3.05;1.23;;;16.90;57.30;;;;;;5011087;28;20405;-70
2022/04/04 11:32:54;;;;;;;3.05;1.58;;;16.90;57.40;;;;;;5011349;28;20121;-70
2022/04/04 11:35:22;;;;;;;3.35;1.50;;;16.90;57.30;;;;;;5011273;28;20113;-70
2022/04/04 11:37:54;;;;;;;1.35;1.23;;;17.00;57.40;;;;;;5027384;28;20061;-70
2022/04/04 11:40:25;;;;;;;2.30;1.15;;;17.00;57.30;;;;;;5011257;28;20087;-70
2022/04/04 11:42:51;;;;;;;1.95;1.20;;;17.00;57.30;;;;;;5010885;28;20038;-70
2022/04/04 11:45:21;;;;;;;1.73;1.30;;;17.00;57.40;;;;;;5010952;28;20049;-69
2022/04/04 11:47:57;;;;;;;1.70;1.20;;;17.00;57.30;;;;;;5027374;28;20045;-70
2022/04/04 11:50:26;;;;;;;2.33;1.17;;;17.00;57.30;;;;;;5010081;28;20034;-69
2022/04/04 11:52:54;;;;;;;2.33;1.40;;;17.10;57.50;;;;;;5011072;28;20452;-70
2022/04/04 11:55:21;;;;;;;1.60;1.20;;;17.10;57.40;;;;;;5011124;28;20570;-70
2022/04/04 11:57:49;;;;;;;2.28;1.30;;;17.10;57.40;;;;;;5010622;28;20040;-70
2022/04/04 12:00:20;;;;;;;1.75;1.08;;;17.10;57.40;;;;;;5024109;28;20438;-70
2022/04/04 12:02:46;;;;;;;3.65;1.23;;;17.10;57.40;;;;;;5027411;28;20034;-73
2022/04/04 12:05:14;;;;;;;2.45;1.27;;;17.20;57.50;;;;;;5011911;28;20459;-71
2022/04/04 12:07:41;;;;;;;2.72;1.40;;;17.10;57.50;;;;;;5011650;28;20036;-71
2022/04/04 12:10:08;;;;;;;8.85;2.15;;;17.20;57.60;;;;;;5011655;28;20018;-72
2022/04/04 12:12:33;;;;;;;10.52;2.17;;;17.20;57.60;;;;;;5029262;28;20025;-72
2022/04/04 12:14:59;;;;;;;9.63;2.50;;;17.30;57.70;;;;;;5032615;28;20021;-73
2022/04/04 12:17:25;;;;;;;14.38;2.78;;;17.20;57.70;;;;;;5032500;28;20036;-72
2022/04/04 12:19:52;;;;;;;12.73;3.08;;;17.30;57.80;;;;;;5032515;28;20034;-71
2022/04/04 12:25:04;;;;;;;6.55;2.50;;;17.30;57.90;;;;;;5017636;28;20079;-72
2022/04/04 12:27:29;;;;;;;8.93;3.20;;;17.30;58.00;;;;;;5014630;28;20029;-72
2022/04/04 12:30:05;;;;;;;9.23;2.65;;;17.40;58.10;;;;;;5031201;28;20440;-71
2022/04/04 12:32:37;;;;;;;8.60;2.45;;;17.40;58.10;;;;;;5031288;28;20086;-71
2022/04/04 12:35:06;;;;;;;8.45;2.53;;;17.40;58.10;;;;;;5031226;28;20091;-70
2022/04/04 12:37:44;;;;;;;9.02;2.25;;;17.40;58.10;;;;;;5031192;28;20484;-70
2022/04/04 12:40:13;;;;;;;5.53;2.35;;;17.50;58.30;;;;;;5031146;28;20087;-71
2022/04/04 12:42:38;;;;;;;6.30;2.22;;;17.50;58.30;;;;;;5031962;28;20040;-71
2022/04/04 12:45:04;;;;;;;7.00;2.60;;;17.50;58.30;;;;;;5030913;28;20054;-71
2022/04/04 12:47:30;;;;;;;7.72;2.17;;;17.50;58.30;;;;;;5031075;28;20395;-71
2022/04/04 12:50:12;;;;;;;8.15;2.58;;;17.50;58.30;;;;;;5030891;28;20030;-72
2022/04/04 12:53:03;;;;;;;7.15;1.75;;;17.60;58.50;;;;;;5014900;28;20025;-71
2022/04/04 12:55:29;;;;;;;8.23;2.17;;;17.60;58.50;;;;;;5031780;28;20086;-71
2022/04/04 12:57:55;;;;;;;7.50;2.15;;;17.50;58.50;;;;;;5031059;28;20495;-71